createdAt,value
2017-07-09T00:00:50.566Z,16.70
2017-07-09T00:03:18.096Z,16.80
2017-07-09T00:05:46.410Z,16.70
2017-07-09T00:08:14.250Z,15.73
2017-07-09T00:10:42.510Z,16.23
2017-07-09T00:13:10.012Z,18.00
2017-07-09T00:15:37.891Z,16.37
2017-07-09T00:18:05.421Z,16.77
2017-07-09T00:20:32.964Z,17.10
2017-07-09T00:23:01.591Z,17.37
2017-07-09T00:25:29.123Z,16.90
2017-07-09T00:27:57.417Z,17.97
2017-07-09T00:30:25.250Z,17.50
2017-07-09T00:32:52.768Z,17.53
2017-07-09T00:35:20.285Z,18.33
2017-07-09T00:37:48.095Z,18.87
2017-07-09T00:40:15.622Z,18.70
2017-07-09T00:42:43.151Z,18.47
2017-07-09T00:45:11.073Z,17.53
2017-07-09T00:47:38.588Z,18.17
2017-07-09T00:50:06.882Z,18.23
2017-07-09T00:52:34.782Z,16.43
2017-07-09T00:55:02.296Z,17.10
2017-07-09T00:57:30.600Z,17.57
2017-07-09T00:59:58.494Z,16.80
2017-07-09T01:02:26.015Z,16.97
2017-07-09T01:04:54.286Z,18.20
2017-07-09T01:07:22.903Z,18.07
2017-07-09T01:09:50.415Z,16.30
2017-07-09T01:12:17.941Z,18.03
2017-07-09T01:14:45.788Z,16.60
2017-07-09T01:17:13.303Z,18.40
2017-07-09T01:19:40.847Z,18.10
2017-07-09T01:22:08.667Z,17.53
2017-07-09T01:24:36.178Z,17.73
2017-07-09T01:27:03.723Z,17.40
2017-07-09T01:29:31.585Z,16.13
2017-07-09T01:31:59.114Z,16.10
2017-07-09T01:34:26.637Z,18.27
2017-07-09T01:36:54.566Z,18.13
2017-07-09T01:39:22.077Z,18.53
2017-07-09T01:41:50.359Z,15.63
2017-07-09T01:44:19.025Z,16.30
2017-07-09T01:46:46.551Z,17.07
2017-07-09T01:49:14.075Z,15.80
2017-07-09T01:51:41.962Z,17.50
2017-07-09T01:54:09.481Z,16.23
2017-07-09T01:56:37.782Z,16.87
2017-07-09T01:59:05.677Z,17.60
2017-07-09T02:01:33.190Z,18.10
2017-07-09T02:04:00.709Z,16.87
2017-07-09T02:06:28.602Z,18.03
2017-07-09T02:08:56.143Z,17.50
2017-07-09T02:11:23.690Z,17.60
2017-07-09T02:13:51.557Z,16.93
2017-07-09T02:16:19.087Z,16.63
2017-07-09T02:18:46.641Z,16.57
2017-07-09T02:21:14.645Z,17.63
2017-07-09T02:23:42.148Z,17.00
2017-07-09T02:26:09.657Z,17.27
2017-07-09T02:28:37.542Z,18.67
2017-07-09T02:31:05.046Z,17.10
2017-07-09T02:33:32.589Z,19.20
2017-07-09T02:36:00.419Z,16.80
2017-07-09T02:38:27.939Z,15.60
2017-07-09T02:40:55.459Z,15.40
2017-07-09T02:43:23.407Z,16.53
2017-07-09T02:45:50.924Z,17.87
2017-07-09T02:48:18.440Z,17.90
2017-07-09T02:50:46.682Z,17.77
2017-07-09T02:53:14.188Z,17.53
2017-07-09T02:55:41.695Z,15.27
2017-07-09T02:58:09.598Z,17.00
2017-07-09T03:00:37.114Z,16.40
2017-07-09T03:03:05.395Z,17.17
2017-07-09T03:05:33.190Z,17.67
2017-07-09T03:08:00.696Z,17.80
2017-07-09T03:10:28.221Z,17.30
2017-07-09T03:12:56.096Z,17.20
2017-07-09T03:15:23.615Z,16.60
2017-07-09T03:17:51.117Z,16.53
2017-07-09T03:20:19.059Z,16.43
2017-07-09T03:22:46.573Z,15.80
2017-07-09T03:25:14.090Z,15.47
2017-07-09T03:27:42.056Z,18.50
2017-07-09T03:30:09.593Z,18.03
2017-07-09T03:32:37.131Z,16.60
2017-07-09T03:35:05.744Z,18.47
2017-07-09T03:37:33.267Z,17.77
2017-07-09T03:40:00.795Z,16.60
2017-07-09T03:42:28.620Z,16.07
2017-07-09T03:44:56.139Z,16.10
2017-07-09T03:47:23.665Z,16.80
2017-07-09T03:49:51.634Z,17.00
2017-07-09T03:52:19.171Z,17.40
2017-07-09T03:54:46.698Z,18.00
2017-07-09T03:57:14.522Z,17.37
2017-07-09T03:59:42.032Z,17.27
2017-07-09T04:02:09.563Z,17.17
2017-07-09T04:04:37.403Z,16.87
2017-07-09T04:07:04.923Z,17.70
2017-07-09T04:09:33.206Z,16.57
2017-07-09T04:12:01.841Z,17.60
2017-07-09T04:14:29.368Z,17.87
2017-07-09T04:16:56.887Z,16.20
2017-07-09T04:19:24.711Z,16.67
2017-07-09T04:21:52.236Z,17.43
2017-07-09T04:24:20.520Z,15.67
2017-07-09T04:26:49.142Z,18.60
2017-07-09T04:29:16.674Z,16.17
2017-07-09T04:31:44.196Z,17.37
2017-07-09T04:34:13.016Z,15.90
2017-07-09T04:36:41.298Z,16.67
2017-07-09T04:39:09.577Z,16.57
2017-07-09T04:41:39.606Z,20.17
2017-07-09T04:44:07.212Z,16.37
2017-07-09T04:46:34.741Z,15.77
2017-07-09T04:49:02.565Z,16.73
2017-07-09T04:51:30.081Z,18.03
2017-07-09T04:53:57.610Z,16.70
2017-07-09T04:56:25.403Z,17.10
2017-07-09T04:58:52.923Z,16.13
2017-07-09T05:01:20.444Z,15.47
2017-07-09T05:03:48.288Z,17.07
2017-07-09T05:06:15.829Z,16.87
2017-07-09T05:08:43.354Z,16.40
2017-07-09T05:11:11.177Z,15.97
2017-07-09T05:13:38.696Z,16.80
2017-07-09T05:16:07.002Z,17.73
2017-07-09T05:18:34.869Z,17.50
2017-07-09T05:21:02.402Z,16.47
2017-07-09T05:23:30.696Z,15.67
2017-07-09T05:25:58.587Z,17.73
2017-07-09T05:28:26.117Z,17.07
2017-07-09T05:30:53.635Z,16.60
2017-07-09T05:33:21.451Z,15.53
2017-07-09T05:35:48.976Z,16.27
2017-07-09T05:38:16.504Z,15.83
2017-07-09T05:40:44.348Z,15.93
2017-07-09T05:43:11.866Z,16.90
2017-07-09T05:45:40.139Z,16.70
2017-07-09T05:48:07.991Z,17.57
2017-07-09T05:50:35.511Z,17.00
2017-07-09T05:53:03.178Z,16.67
2017-07-09T05:55:31.001Z,16.23
2017-07-09T05:57:58.522Z,17.23
2017-07-09T06:00:26.038Z,16.27
2017-07-09T06:02:53.854Z,15.30
2017-07-09T06:05:21.384Z,15.37
2017-07-09T06:07:48.915Z,16.37
2017-07-09T06:10:16.704Z,15.57
2017-07-09T06:12:44.225Z,15.77
2017-07-09T06:15:11.741Z,16.70
2017-07-09T06:17:39.607Z,16.80
2017-07-09T06:20:07.142Z,16.30
2017-07-09T06:22:34.672Z,16.30
2017-07-09T06:25:03.241Z,15.93
2017-07-09T06:27:30.760Z,16.60
2017-07-09T06:29:59.143Z,14.80
2017-07-09T06:32:27.081Z,15.80
2017-07-09T06:34:54.628Z,15.60
2017-07-09T06:37:22.155Z,14.30
2017-07-09T06:39:50.004Z,13.37
2017-07-09T06:42:17.529Z,13.17
2017-07-09T06:44:45.068Z,13.50
2017-07-09T06:47:12.891Z,13.53
2017-07-09T06:49:40.441Z,10.77
2017-07-09T06:52:08.029Z,10.53
2017-07-09T06:54:35.872Z,11.07
2017-07-09T06:57:03.394Z,9.90
2017-07-09T06:59:31.043Z,10.97
2017-07-09T07:01:59.076Z,11.23
2017-07-09T07:04:26.612Z,11.20
2017-07-09T07:06:54.223Z,10.57
2017-07-09T07:09:22.046Z,11.23
2017-07-09T07:11:49.754Z,11.80
2017-07-09T07:14:17.273Z,11.17
2017-07-09T07:16:45.139Z,10.70
2017-07-09T07:19:12.679Z,10.00
2017-07-09T07:21:40.967Z,10.43
2017-07-09T07:24:08.865Z,9.57
2017-07-09T07:26:36.387Z,10.37
2017-07-09T07:29:03.909Z,9.57
2017-07-09T07:31:31.870Z,9.40
2017-07-09T07:33:59.394Z,9.63
2017-07-09T07:36:26.896Z,9.63
2017-07-09T07:38:54.718Z,9.60
2017-07-09T07:41:22.239Z,9.20
2017-07-09T07:43:50.546Z,9.90
2017-07-09T07:46:18.529Z,8.37
2017-07-09T07:48:46.061Z,9.20
2017-07-09T07:51:13.563Z,9.63
2017-07-09T07:53:41.373Z,9.73
2017-07-09T07:56:08.894Z,9.80
2017-07-09T07:58:36.425Z,8.60
2017-07-09T08:01:04.234Z,8.10
2017-07-09T08:03:31.737Z,9.83
2017-07-09T08:05:59.250Z,8.70
2017-07-09T08:08:27.198Z,8.40
2017-07-09T08:10:54.722Z,8.23
2017-07-09T08:13:22.249Z,9.27
2017-07-09T08:15:50.097Z,9.73
2017-07-09T08:18:17.625Z,8.50
2017-07-09T08:20:45.135Z,8.93
2017-07-09T08:23:12.955Z,8.33
2017-07-09T08:25:40.466Z,8.03
2017-07-09T08:28:07.980Z,8.33
2017-07-09T08:30:35.837Z,7.63
2017-07-09T08:33:03.345Z,7.97
2017-07-09T08:35:30.893Z,8.80
2017-07-09T08:37:58.768Z,8.70
2017-07-09T08:40:26.285Z,8.87
2017-07-09T08:42:53.786Z,8.20
2017-07-09T08:45:21.580Z,8.87
2017-07-09T08:47:49.277Z,9.50
2017-07-09T08:50:16.789Z,8.50
2017-07-09T08:52:44.603Z,7.50
2017-07-09T08:55:12.139Z,8.87
2017-07-09T08:57:39.656Z,9.40
2017-07-09T09:00:07.463Z,8.20
2017-07-09T09:02:34.980Z,9.00
2017-07-09T09:05:02.754Z,8.93
2017-07-09T09:07:31.120Z,9.03
2017-07-09T09:09:58.911Z,9.00
2017-07-09T09:12:26.748Z,9.63
2017-07-09T09:14:55.839Z,9.20
2017-07-09T09:17:23.545Z,8.60
2017-07-09T09:19:51.069Z,9.50
2017-07-09T09:22:18.918Z,8.83
2017-07-09T09:24:46.775Z,9.20
2017-07-09T09:27:14.322Z,9.80
2017-07-09T09:29:42.956Z,8.50
2017-07-09T09:32:10.473Z,9.00
2017-07-09T09:34:37.992Z,8.80
2017-07-09T09:37:05.839Z,9.50
2017-07-09T09:39:33.525Z,9.03
2017-07-09T09:42:01.074Z,8.40
2017-07-09T09:44:28.919Z,10.20
2017-07-09T09:46:56.443Z,10.67
2017-07-09T09:49:24.637Z,9.17
2017-07-09T09:51:52.734Z,9.30
2017-07-09T09:54:20.243Z,10.20
2017-07-09T09:56:47.745Z,10.37
2017-07-09T09:59:15.843Z,10.30
2017-07-09T10:01:43.374Z,10.13
2017-07-09T10:04:10.897Z,10.57
2017-07-09T10:06:38.711Z,9.83
2017-07-09T10:09:09.566Z,15.03
2017-07-09T10:12:01.153Z,13.40
2017-07-09T10:19:13.507Z,9.30
2017-07-09T10:21:41.237Z,10.50
2017-07-09T10:47:45.495Z,9.50
2017-07-09T10:50:13.383Z,10.10
2017-07-09T10:52:40.912Z,10.07
2017-07-09T10:55:08.429Z,9.50
2017-07-09T10:57:36.279Z,9.93
2017-07-09T11:00:05.925Z,10.60
2017-07-09T11:02:34.399Z,10.00
2017-07-09T11:05:02.280Z,9.90
2017-07-09T11:13:14.511Z,9.57
2017-07-09T11:15:42.312Z,10.40
2017-07-09T11:18:09.829Z,9.87
2017-07-09T11:20:37.545Z,9.33
2017-07-09T11:23:05.342Z,9.30
2017-07-09T11:25:32.845Z,9.23
2017-07-09T11:28:00.352Z,9.37
2017-07-09T11:30:28.367Z,10.47
2017-07-09T11:32:55.908Z,9.60
2017-07-09T11:35:23.992Z,9.47
2017-07-09T11:37:51.832Z,13.60
2017-07-09T11:40:19.391Z,10.10
2017-07-09T11:42:46.917Z,9.67
2017-07-09T11:45:14.734Z,11.07
2017-07-09T11:47:42.255Z,18.70
2017-07-09T11:50:09.777Z,10.30
2017-07-09T11:52:37.746Z,19.20
2017-07-09T11:55:05.263Z,9.50
2017-07-09T11:57:33.541Z,9.33
2017-07-09T12:00:02.134Z,9.43
2017-07-09T12:02:29.672Z,9.50
2017-07-09T12:04:57.199Z,9.20
2017-07-09T12:07:25.052Z,8.77
2017-07-09T12:09:52.637Z,9.50
2017-07-09T12:12:20.137Z,8.93
2017-07-09T12:14:47.944Z,9.07
2017-07-09T12:17:15.461Z,9.57
2017-07-09T12:19:43.757Z,11.73
2017-07-09T12:22:12.593Z,9.53
2017-07-09T12:24:40.113Z,9.83
2017-07-09T12:27:07.676Z,8.40
2017-07-09T12:29:35.568Z,9.67
2017-07-09T12:32:03.079Z,9.47
2017-07-09T12:34:30.616Z,8.57
2017-07-09T12:36:58.420Z,7.70
2017-07-09T12:39:25.943Z,9.40
2017-07-09T12:41:53.497Z,9.53
2017-07-09T12:44:21.347Z,8.87
2017-07-09T12:46:48.890Z,10.40
2017-07-09T12:49:16.561Z,9.93
2017-07-09T12:51:44.375Z,8.80
2017-07-09T12:54:11.887Z,9.10
2017-07-09T12:56:39.395Z,9.50
2017-07-09T12:59:07.229Z,9.37
2017-07-09T13:01:34.768Z,8.83
2017-07-09T13:04:02.311Z,10.17
2017-07-09T13:06:30.152Z,9.47
2017-07-09T13:08:58.432Z,8.27
2017-07-09T13:11:25.933Z,9.03
2017-07-09T13:13:53.825Z,8.67
2017-07-09T13:16:21.331Z,8.27
2017-07-09T13:18:49.590Z,7.70
2017-07-09T13:21:18.181Z,8.37
2017-07-09T13:23:46.469Z,8.60
2017-07-09T13:26:14.775Z,8.30
2017-07-09T13:28:42.671Z,8.47
2017-07-09T13:31:10.213Z,7.83
2017-07-09T13:33:37.746Z,7.30
2017-07-09T13:36:05.655Z,7.10
2017-07-09T13:38:33.184Z,8.30
2017-07-09T13:41:00.709Z,8.47
2017-07-09T13:43:28.509Z,7.50
2017-07-09T13:45:56.029Z,8.40
2017-07-09T13:48:23.536Z,9.00
2017-07-09T13:50:51.427Z,8.30
2017-07-09T13:53:18.946Z,7.80
2017-07-09T13:55:46.475Z,6.73
2017-07-09T13:58:14.314Z,8.40
2017-07-09T14:00:41.833Z,7.50
2017-07-09T14:03:09.360Z,6.70
2017-07-09T14:05:37.169Z,7.40
2017-07-09T14:08:04.691Z,7.90
2017-07-09T14:10:32.217Z,7.60
2017-07-09T14:13:00.095Z,7.80
2017-07-09T14:15:27.636Z,7.60
2017-07-09T14:17:55.142Z,7.97
2017-07-09T14:20:23.905Z,7.63
2017-07-09T14:22:51.437Z,7.20
2017-07-09T14:25:18.949Z,7.20
2017-07-09T14:27:47.604Z,7.23
2017-07-09T14:30:15.121Z,8.03
2017-07-09T14:32:42.646Z,6.63
2017-07-09T14:35:10.444Z,7.60
2017-07-09T14:37:37.976Z,7.47
2017-07-09T14:40:05.506Z,6.90
2017-07-09T14:42:33.368Z,7.50
2017-07-09T14:45:00.894Z,7.90
2017-07-09T14:47:28.426Z,7.63
2017-07-09T14:49:56.255Z,7.60
2017-07-09T14:52:23.796Z,8.60
2017-07-09T14:54:51.324Z,8.57
2017-07-09T14:57:19.136Z,7.80
2017-07-09T14:59:46.654Z,8.27
2017-07-09T15:02:14.936Z,7.60
2017-07-09T15:04:43.567Z,8.60
2017-07-09T15:07:11.105Z,8.33
2017-07-09T15:09:38.644Z,8.20
2017-07-09T15:12:06.567Z,7.67
2017-07-09T15:14:34.120Z,7.50
2017-07-09T15:17:01.635Z,8.03
2017-07-09T15:19:30.254Z,7.77
2017-07-09T15:21:57.797Z,7.33
2017-07-09T15:24:25.322Z,8.07
2017-07-09T15:26:55.561Z,8.57
2017-07-09T15:29:23.111Z,7.60
2017-07-09T15:31:50.645Z,7.80
2017-07-09T15:34:18.469Z,7.47
2017-07-09T15:36:46.843Z,6.90
2017-07-09T15:39:15.789Z,7.43
2017-07-09T15:41:45.500Z,7.17
2017-07-09T15:44:13.230Z,7.30
2017-07-09T15:46:40.752Z,7.67
2017-07-09T15:49:08.664Z,7.33
2017-07-09T15:51:36.189Z,7.60
2017-07-09T15:54:03.692Z,8.17
2017-07-09T15:56:31.551Z,8.60
2017-07-09T15:58:59.060Z,8.20
2017-07-09T16:01:28.164Z,7.70
2017-07-09T16:03:55.995Z,7.70
2017-07-09T16:06:24.520Z,7.83
2017-07-09T16:08:52.098Z,8.10
2017-07-09T16:11:20.595Z,8.37
2017-07-09T16:13:48.108Z,8.10
2017-07-09T16:16:16.399Z,7.87
2017-07-09T16:18:44.304Z,7.90
2017-07-09T16:21:11.839Z,8.97
2017-07-09T16:23:39.356Z,8.80
2017-07-09T16:26:07.180Z,8.50
2017-07-09T16:28:34.713Z,9.43
2017-07-09T16:31:02.271Z,10.70
2017-07-09T16:33:30.206Z,10.50
2017-07-09T16:35:57.743Z,8.40
2017-07-09T16:38:25.287Z,8.00
2017-07-09T16:40:53.260Z,7.63
2017-07-09T16:43:20.794Z,8.60
2017-07-09T16:45:48.327Z,8.93
2017-07-09T16:48:16.155Z,8.60
2017-07-09T16:50:44.412Z,8.63
2017-07-09T16:53:11.954Z,8.90
2017-07-09T16:55:41.057Z,8.50
2017-07-09T16:58:08.619Z,8.73
2017-07-09T17:00:36.157Z,8.90
2017-07-09T17:03:04.096Z,9.43
2017-07-09T17:05:31.623Z,9.43
2017-07-09T17:07:59.158Z,8.93
2017-07-09T17:10:27.085Z,9.60
2017-07-09T17:12:54.666Z,10.20
2017-07-09T17:15:22.201Z,9.50
2017-07-09T17:17:50.043Z,9.17
2017-07-09T17:20:17.575Z,8.73
2017-07-09T17:22:45.433Z,9.40
2017-07-09T17:25:13.740Z,8.87
2017-07-09T17:27:41.615Z,8.33
2017-07-09T17:30:09.416Z,9.13
2017-07-09T17:32:37.370Z,7.70
2017-07-09T17:35:04.918Z,8.70
2017-07-09T17:37:32.476Z,9.90
2017-07-09T17:40:00.297Z,8.90
2017-07-09T17:42:28.594Z,8.50
2017-07-09T17:44:56.129Z,10.50
2017-07-09T17:47:23.985Z,9.50
2017-07-09T17:49:51.530Z,11.00
2017-07-09T17:52:19.065Z,10.00
2017-07-09T17:54:46.949Z,10.70
2017-07-09T17:57:14.488Z,10.50
2017-07-09T17:59:42.039Z,9.57
2017-07-09T18:02:09.837Z,9.33
2017-07-09T18:04:37.675Z,10.10
2017-07-09T18:07:05.297Z,9.70
2017-07-09T18:09:33.132Z,9.10
2017-07-09T18:12:00.664Z,10.30
2017-07-09T18:14:28.219Z,9.43
2017-07-09T18:16:56.865Z,8.97
2017-07-09T18:19:25.186Z,10.40
2017-07-09T18:21:52.727Z,9.77
2017-07-09T18:24:20.683Z,9.97
2017-07-09T18:26:48.213Z,10.77
2017-07-09T18:29:15.746Z,10.70
2017-07-09T18:31:43.668Z,10.47
2017-07-09T18:34:11.213Z,11.50
2017-07-09T18:36:38.731Z,11.80
2017-07-09T18:39:06.665Z,10.07
2017-07-09T18:41:34.176Z,10.70
2017-07-09T18:44:01.732Z,10.77
2017-07-09T18:46:29.574Z,9.93
2017-07-09T18:48:57.110Z,10.30
2017-07-09T18:51:24.668Z,11.37
2017-07-09T18:53:55.451Z,10.10
2017-07-09T18:56:23.037Z,12.00
2017-07-09T18:58:50.583Z,12.20
2017-07-09T19:01:27.774Z,12.90
2017-07-09T19:07:38.190Z,9.13
2017-07-09T19:40:08.712Z,8.60
2017-07-09T19:42:36.323Z,8.00
2017-07-09T19:45:03.879Z,9.13
2017-07-09T19:47:32.961Z,8.73
2017-07-09T19:50:01.295Z,8.80
2017-07-09T19:52:28.809Z,9.50
2017-07-09T19:54:56.837Z,8.77
2017-07-09T19:57:24.535Z,9.20
2017-07-09T19:59:53.334Z,9.30
2017-07-09T20:02:21.576Z,9.73
2017-07-09T20:04:49.229Z,10.33
2017-07-09T20:07:16.822Z,9.60
2017-07-09T20:09:44.678Z,10.30
2017-07-09T20:12:12.211Z,10.30
2017-07-09T20:14:40.400Z,10.70
2017-07-09T20:17:10.178Z,10.20
2017-07-09T20:19:38.704Z,10.77
2017-07-09T20:22:07.039Z,9.43
2017-07-09T20:24:35.637Z,11.73
2017-07-09T20:27:03.995Z,10.77
2017-07-09T20:29:32.578Z,11.03
2017-07-09T20:32:02.084Z,11.20
2017-07-09T20:34:30.474Z,10.80
2017-07-09T20:36:59.017Z,10.73
2017-07-09T20:39:27.746Z,11.67
2017-07-09T20:41:56.344Z,11.13
2017-07-09T20:44:24.114Z,11.37
2017-07-09T20:46:51.993Z,11.20
2017-07-09T20:49:19.527Z,10.43
2017-07-09T20:51:47.042Z,11.53
2017-07-09T20:54:14.860Z,11.30
2017-07-09T20:56:42.413Z,11.40
2017-07-09T20:59:09.936Z,11.80
2017-07-09T21:01:37.975Z,11.90
2017-07-09T21:04:05.512Z,11.50
2017-07-09T21:06:33.049Z,12.57
2017-07-09T21:09:01.019Z,12.03
2017-07-09T21:11:28.671Z,13.37
2017-07-09T21:13:56.191Z,12.23
2017-07-09T21:16:24.054Z,11.63
2017-07-09T21:18:51.594Z,12.30
2017-07-09T21:21:19.132Z,12.60
2017-07-09T21:23:47.050Z,13.40
2017-07-09T21:26:14.585Z,11.90
2017-07-09T21:28:42.147Z,12.23
2017-07-09T21:31:10.033Z,13.17
2017-07-09T21:33:37.579Z,13.00
2017-07-09T21:36:05.111Z,12.70
2017-07-09T21:38:32.901Z,13.03
2017-07-09T21:41:00.431Z,13.40
2017-07-09T21:43:28.742Z,12.70
2017-07-09T21:45:56.576Z,13.03
2017-07-09T21:48:24.859Z,12.37
2017-07-09T21:50:53.179Z,12.50
2017-07-09T21:53:21.017Z,13.77
2017-07-09T21:55:48.548Z,12.40
2017-07-09T21:58:16.063Z,13.77
2017-07-09T22:00:43.861Z,12.40
2017-07-09T22:03:11.397Z,14.40
2017-07-09T22:05:38.915Z,13.77
2017-07-09T22:08:07.581Z,14.07
2017-07-09T22:10:35.095Z,13.93
2017-07-09T22:13:02.651Z,13.70
2017-07-09T22:15:30.465Z,16.40
2017-07-09T22:17:57.998Z,16.47
2017-07-09T22:20:25.538Z,17.00
2017-07-09T22:22:53.354Z,15.77
2017-07-09T22:25:21.689Z,17.03
2017-07-09T22:27:49.220Z,16.30
2017-07-09T22:30:17.137Z,16.27
2017-07-09T22:32:44.674Z,17.70
2017-07-09T22:35:12.202Z,17.00
2017-07-09T22:37:40.824Z,17.00
2017-07-09T22:40:08.356Z,17.53
2017-07-09T22:42:35.908Z,17.40
2017-07-09T22:45:05.383Z,18.53
2017-07-09T22:47:32.946Z,17.70
2017-07-09T22:50:00.459Z,17.80
2017-07-09T22:52:28.440Z,19.10
2017-07-09T22:54:55.962Z,18.73
2017-07-09T22:57:24.248Z,19.83
2017-07-09T22:59:52.139Z,19.37
2017-07-09T23:02:19.694Z,19.03
2017-07-09T23:04:47.220Z,18.70
2017-07-09T23:07:15.841Z,18.30
2017-07-09T23:09:43.377Z,19.70
2017-07-09T23:12:10.902Z,19.27
2017-07-09T23:14:38.728Z,19.23
2017-07-09T23:17:06.277Z,19.10
2017-07-09T23:19:33.825Z,19.73
2017-07-09T23:22:02.414Z,19.90
2017-07-09T23:24:30.705Z,19.23
2017-07-09T23:26:58.239Z,20.07
2017-07-09T23:29:26.872Z,20.07
2017-07-09T23:31:54.396Z,20.13
2017-07-09T23:34:21.941Z,19.10
2017-07-09T23:36:49.855Z,20.77
2017-07-09T23:39:17.372Z,20.90
2017-07-09T23:41:44.904Z,21.13
2017-07-09T23:44:12.763Z,19.47
2017-07-09T23:46:40.280Z,19.57
2017-07-09T23:49:07.801Z,19.80
2017-07-09T23:51:35.614Z,17.30
2017-07-09T23:54:03.138Z,17.30
2017-07-09T23:56:30.678Z,16.47
2017-07-09T23:58:58.596Z,17.20
